New Richmond, Indiana
Current Conditions -  °F | °C
As of 5:54 AM on Thursday 23 Oct 2014 (Local Time) from KLAF Reporting Station
Haze Haze  
Wind Chill: 37°   Ceiling: Unl
Heat Index: 37°   Visibility: 6mi
Dew Point: 36°   Wind: 3mph
Humidity: 96%   Direction: 80°E
Pressure: 30.25"   Gusts: NA
Location:  40.2°N, 86.98°W
Report Text: KLAF 230954Z AUTO 08003KT 6SM BR CLR 03/02 A3025 RMK AO2 SLP246 T00280022 TSNO
Loading
Personal Weather Stations






























Interactive Weather Map
Tropical Storm Tracking
New forecast layout! Learn more

10-Day Weather Forecast

Advertisements
Track Severe Weather on mobile